sensor_id;sensor_type;location;lat;lon;timestamp;P1;durP1;ratioP1;P2;durP2;ratioP2
73940;SDS011;62294;48.554;10.202;2022-08-19T00:01:56;14.77;;;11.57;;
73940;SDS011;62294;48.554;10.202;2022-08-19T00:04:26;17.02;;;11.55;;
73940;SDS011;62294;48.554;10.202;2022-08-19T00:06:56;13.40;;;11.30;;
73940;SDS011;62294;48.554;10.202;2022-08-19T00:09:23;16.17;;;11.90;;
73940;SDS011;62294;48.554;10.202;2022-08-19T00:11:50;12.10;;;10.10;;
73940;SDS011;62294;48.554;10.202;2022-08-19T00:14:18;11.73;;;9.57;;
73940;SDS011;62294;48.554;10.202;2022-08-19T00:16:47;11.90;;;9.25;;
73940;SDS011;62294;48.554;10.202;2022-08-19T00:19:15;11.88;;;9.45;;
73940;SDS011;62294;48.554;10.202;2022-08-19T00:21:42;14.20;;;9.98;;
73940;SDS011;62294;48.554;10.202;2022-08-19T00:24:10;12.68;;;9.20;;
73940;SDS011;62294;48.554;10.202;2022-08-19T00:26:39;10.45;;;8.95;;
73940;SDS011;62294;48.554;10.202;2022-08-19T00:29:07;10.23;;;8.68;;
73940;SDS011;62294;48.554;10.202;2022-08-19T00:31:37;11.48;;;9.48;;
73940;SDS011;62294;48.554;10.202;2022-08-19T00:34:04;11.82;;;8.95;;
73940;SDS011;62294;48.554;10.202;2022-08-19T00:36:31;10.73;;;9.05;;
73940;SDS011;62294;48.554;10.202;2022-08-19T00:38:58;14.25;;;9.98;;
73940;SDS011;62294;48.554;10.202;2022-08-19T00:41:25;13.07;;;9.85;;
73940;SDS011;62294;48.554;10.202;2022-08-19T00:44:00;11.48;;;9.63;;
73940;SDS011;62294;48.554;10.202;2022-08-19T00:46:35;12.32;;;10.15;;
73940;SDS011;62294;48.554;10.202;2022-08-19T00:49:24;11.82;;;9.68;;
73940;SDS011;62294;48.554;10.202;2022-08-19T00:51:58;13.13;;;9.98;;
73940;SDS011;62294;48.554;10.202;2022-08-19T00:54:29;13.57;;;10.30;;
73940;SDS011;62294;48.554;10.202;2022-08-19T00:56:58;13.75;;;10.60;;
73940;SDS011;62294;48.554;10.202;2022-08-19T00:59:25;14.38;;;10.70;;
73940;SDS011;62294;48.554;10.202;2022-08-19T01:02:15;12.88;;;10.15;;
73940;SDS011;62294;48.554;10.202;2022-08-19T01:04:42;14.68;;;11.52;;
73940;SDS011;62294;48.554;10.202;2022-08-19T01:07:09;14.52;;;11.75;;
73940;SDS011;62294;48.554;10.202;2022-08-19T01:09:40;15.52;;;12.07;;
73940;SDS011;62294;48.554;10.202;2022-08-19T01:12:06;17.98;;;12.52;;
73940;SDS011;62294;48.554;10.202;2022-08-19T01:14:35;18.88;;;13.55;;
73940;SDS011;62294;48.554;10.202;2022-08-19T01:17:04;16.02;;;12.20;;
73940;SDS011;62294;48.554;10.202;2022-08-19T01:19:33;16.20;;;12.55;;
73940;SDS011;62294;48.554;10.202;2022-08-19T01:25:01;20.30;;;14.77;;
73940;SDS011;62294;48.554;10.202;2022-08-19T01:27:38;19.85;;;13.75;;
73940;SDS011;62294;48.554;10.202;2022-08-19T01:32:36;20.55;;;13.98;;
73940;SDS011;62294;48.554;10.202;2022-08-19T01:35:03;21.05;;;14.10;;
73940;SDS011;62294;48.554;10.202;2022-08-19T01:37:40;21.98;;;15.38;;
73940;SDS011;62294;48.554;10.202;2022-08-19T01:40:15;19.88;;;14.35;;
73940;SDS011;62294;48.554;10.202;2022-08-19T01:42:43;20.00;;;14.95;;
73940;SDS011;62294;48.554;10.202;2022-08-19T01:45:09;24.42;;;15.85;;
73940;SDS011;62294;48.554;10.202;2022-08-19T01:47:36;22.77;;;15.18;;
73940;SDS011;62294;48.554;10.202;2022-08-19T01:50:04;18.85;;;14.88;;
73940;SDS011;62294;48.554;10.202;2022-08-19T01:52:34;21.38;;;16.17;;
73940;SDS011;62294;48.554;10.202;2022-08-19T01:55:03;23.52;;;16.63;;
73940;SDS011;62294;48.554;10.202;2022-08-19T01:57:31;23.20;;;15.85;;
73940;SDS011;62294;48.554;10.202;2022-08-19T01:59:57;22.00;;;15.55;;
73940;SDS011;62294;48.554;10.202;2022-08-19T02:02:26;24.52;;;16.08;;
73940;SDS011;62294;48.554;10.202;2022-08-19T02:04:52;24.15;;;16.02;;
73940;SDS011;62294;48.554;10.202;2022-08-19T02:07:21;21.73;;;15.40;;
73940;SDS011;62294;48.554;10.202;2022-08-19T02:09:49;23.83;;;14.82;;
73940;SDS011;62294;48.554;10.202;2022-08-19T02:12:15;22.33;;;14.77;;
73940;SDS011;62294;48.554;10.202;2022-08-19T02:14:42;22.67;;;15.50;;
73940;SDS011;62294;48.554;10.202;2022-08-19T02:17:09;24.00;;;15.52;;
73940;SDS011;62294;48.554;10.202;2022-08-19T02:19:36;22.27;;;16.05;;
73940;SDS011;62294;48.554;10.202;2022-08-19T02:22:06;25.48;;;15.88;;
73940;SDS011;62294;48.554;10.202;2022-08-19T02:24:33;26.50;;;16.90;;
73940;SDS011;62294;48.554;10.202;2022-08-19T02:27:00;31.67;;;18.33;;
73940;SDS011;62294;48.554;10.202;2022-08-19T02:29:26;23.48;;;15.98;;
73940;SDS011;62294;48.554;10.202;2022-08-19T02:31:53;23.75;;;16.10;;
73940;SDS011;62294;48.554;10.202;2022-08-19T02:34:19;23.85;;;16.10;;
73940;SDS011;62294;48.554;10.202;2022-08-19T02:36:46;21.38;;;15.30;;
73940;SDS011;62294;48.554;10.202;2022-08-19T02:39:17;25.20;;;16.90;;
73940;SDS011;62294;48.554;10.202;2022-08-19T02:41:44;26.05;;;16.95;;
73940;SDS011;62294;48.554;10.202;2022-08-19T02:44:11;26.50;;;16.77;;
73940;SDS011;62294;48.554;10.202;2022-08-19T02:46:56;24.88;;;16.70;;
73940;SDS011;62294;48.554;10.202;2022-08-19T02:49:22;22.85;;;15.27;;
73940;SDS011;62294;48.554;10.202;2022-08-19T02:51:49;19.65;;;14.80;;
73940;SDS011;62294;48.554;10.202;2022-08-19T02:54:16;22.13;;;15.10;;
73940;SDS011;62294;48.554;10.202;2022-08-19T02:56:43;20.88;;;15.00;;
73940;SDS011;62294;48.554;10.202;2022-08-19T02:59:10;25.15;;;16.30;;
73940;SDS011;62294;48.554;10.202;2022-08-19T03:01:38;28.58;;;16.35;;
73940;SDS011;62294;48.554;10.202;2022-08-19T03:04:07;24.88;;;16.20;;
73940;SDS011;62294;48.554;10.202;2022-08-19T03:06:37;23.08;;;15.68;;
73940;SDS011;62294;48.554;10.202;2022-08-19T03:09:04;28.30;;;17.65;;
73940;SDS011;62294;48.554;10.202;2022-08-19T03:11:31;28.38;;;16.38;;
73940;SDS011;62294;48.554;10.202;2022-08-19T03:14:00;26.98;;;16.80;;
73940;SDS011;62294;48.554;10.202;2022-08-19T03:16:29;27.25;;;15.90;;
73940;SDS011;62294;48.554;10.202;2022-08-19T03:18:59;25.33;;;15.73;;
73940;SDS011;62294;48.554;10.202;2022-08-19T03:21:27;22.77;;;15.75;;
73940;SDS011;62294;48.554;10.202;2022-08-19T03:23:56;23.20;;;15.55;;
73940;SDS011;62294;48.554;10.202;2022-08-19T03:26:24;24.27;;;15.93;;
73940;SDS011;62294;48.554;10.202;2022-08-19T03:28:51;24.65;;;16.08;;
73940;SDS011;62294;48.554;10.202;2022-08-19T03:31:24;23.52;;;15.45;;
73940;SDS011;62294;48.554;10.202;2022-08-19T03:34:21;24.92;;;16.33;;
73940;SDS011;62294;48.554;10.202;2022-08-19T03:36:56;21.90;;;15.23;;
73940;SDS011;62294;48.554;10.202;2022-08-19T03:39:25;24.75;;;16.25;;
73940;SDS011;62294;48.554;10.202;2022-08-19T03:41:52;23.45;;;15.63;;
73940;SDS011;62294;48.554;10.202;2022-08-19T03:44:41;25.67;;;16.23;;
73940;SDS011;62294;48.554;10.202;2022-08-19T03:47:11;26.77;;;17.67;;
73940;SDS011;62294;48.554;10.202;2022-08-19T03:49:41;28.15;;;17.13;;
73940;SDS011;62294;48.554;10.202;2022-08-19T03:52:08;27.80;;;17.48;;
73940;SDS011;62294;48.554;10.202;2022-08-19T03:54:35;26.15;;;16.05;;
73940;SDS011;62294;48.554;10.202;2022-08-19T03:57:02;25.35;;;15.85;;
73940;SDS011;62294;48.554;10.202;2022-08-19T03:59:31;26.55;;;16.50;;
73940;SDS011;62294;48.554;10.202;2022-08-19T04:02:01;32.05;;;17.85;;
73940;SDS011;62294;48.554;10.202;2022-08-19T04:04:31;24.02;;;17.02;;
73940;SDS011;62294;48.554;10.202;2022-08-19T04:06:57;25.58;;;15.63;;
73940;SDS011;62294;48.554;10.202;2022-08-19T04:09:25;24.90;;;15.88;;
73940;SDS011;62294;48.554;10.202;2022-08-19T04:11:53;26.77;;;16.48;;
73940;SDS011;62294;48.554;10.202;2022-08-19T04:14:22;25.70;;;16.38;;
73940;SDS011;62294;48.554;10.202;2022-08-19T04:16:52;21.33;;;15.25;;
73940;SDS011;62294;48.554;10.202;2022-08-19T04:19:18;22.55;;;15.45;;
73940;SDS011;62294;48.554;10.202;2022-08-19T04:21:47;20.00;;;14.00;;
73940;SDS011;62294;48.554;10.202;2022-08-19T04:24:16;21.38;;;15.02;;
73940;SDS011;62294;48.554;10.202;2022-08-19T04:26:43;23.67;;;15.90;;
73940;SDS011;62294;48.554;10.202;2022-08-19T04:29:11;24.20;;;15.98;;
73940;SDS011;62294;48.554;10.202;2022-08-19T04:31:40;26.30;;;17.05;;
73940;SDS011;62294;48.554;10.202;2022-08-19T04:34:10;24.13;;;15.70;;
73940;SDS011;62294;48.554;10.202;2022-08-19T04:36:39;23.48;;;15.85;;
73940;SDS011;62294;48.554;10.202;2022-08-19T04:39:09;20.70;;;15.13;;
73940;SDS011;62294;48.554;10.202;2022-08-19T04:41:40;27.15;;;16.95;;
73940;SDS011;62294;48.554;10.202;2022-08-19T04:44:26;25.27;;;16.48;;
73940;SDS011;62294;48.554;10.202;2022-08-19T04:46:58;22.35;;;14.95;;
73940;SDS011;62294;48.554;10.202;2022-08-19T04:49:26;24.42;;;16.13;;
73940;SDS011;62294;48.554;10.202;2022-08-19T04:51:53;26.27;;;16.02;;
73940;SDS011;62294;48.554;10.202;2022-08-19T04:54:21;22.85;;;14.40;;
73940;SDS011;62294;48.554;10.202;2022-08-19T04:57:04;21.52;;;15.40;;
73940;SDS011;62294;48.554;10.202;2022-08-19T04:59:36;20.80;;;14.57;;
73940;SDS011;62294;48.554;10.202;2022-08-19T05:02:05;20.75;;;14.38;;
73940;SDS011;62294;48.554;10.202;2022-08-19T05:04:33;17.88;;;13.25;;
73940;SDS011;62294;48.554;10.202;2022-08-19T05:07:00;18.45;;;12.75;;
73940;SDS011;62294;48.554;10.202;2022-08-19T05:09:28;19.23;;;14.15;;
73940;SDS011;62294;48.554;10.202;2022-08-19T05:12:15;19.85;;;14.02;;
73940;SDS011;62294;48.554;10.202;2022-08-19T05:14:43;18.85;;;13.45;;
73940;SDS011;62294;48.554;10.202;2022-08-19T05:17:11;20.40;;;13.63;;
73940;SDS011;62294;48.554;10.202;2022-08-19T05:19:52;20.70;;;13.48;;
73940;SDS011;62294;48.554;10.202;2022-08-19T05:22:38;18.45;;;12.63;;
73940;SDS011;62294;48.554;10.202;2022-08-19T05:25:06;19.95;;;13.52;;
73940;SDS011;62294;48.554;10.202;2022-08-19T05:27:38;19.65;;;13.88;;
73940;SDS011;62294;48.554;10.202;2022-08-19T05:30:06;18.65;;;13.13;;
73940;SDS011;62294;48.554;10.202;2022-08-19T05:32:33;24.08;;;15.25;;
73940;SDS011;62294;48.554;10.202;2022-08-19T05:34:59;22.90;;;14.93;;
73940;SDS011;62294;48.554;10.202;2022-08-19T05:37:26;21.48;;;14.43;;
73940;SDS011;62294;48.554;10.202;2022-08-19T05:39:53;22.17;;;14.80;;
73940;SDS011;62294;48.554;10.202;2022-08-19T05:42:21;23.60;;;15.52;;
73940;SDS011;62294;48.554;10.202;2022-08-19T05:44:49;21.27;;;13.90;;
73940;SDS011;62294;48.554;10.202;2022-08-19T05:47:16;23.23;;;14.70;;
73940;SDS011;62294;48.554;10.202;2022-08-19T05:49:45;22.38;;;14.32;;
73940;SDS011;62294;48.554;10.202;2022-08-19T05:52:14;23.00;;;14.85;;
73940;SDS011;62294;48.554;10.202;2022-08-19T05:54:44;24.52;;;15.57;;
73940;SDS011;62294;48.554;10.202;2022-08-19T05:57:17;23.15;;;14.55;;
73940;SDS011;62294;48.554;10.202;2022-08-19T05:59:44;21.75;;;14.38;;
73940;SDS011;62294;48.554;10.202;2022-08-19T06:02:24;25.35;;;15.43;;
73940;SDS011;62294;48.554;10.202;2022-08-19T06:04:56;25.85;;;14.60;;
73940;SDS011;62294;48.554;10.202;2022-08-19T06:07:23;28.63;;;15.50;;
73940;SDS011;62294;48.554;10.202;2022-08-19T06:09:50;20.83;;;13.90;;
73940;SDS011;62294;48.554;10.202;2022-08-19T06:12:27;26.77;;;14.77;;
73940;SDS011;62294;48.554;10.202;2022-08-19T06:14:55;26.40;;;15.75;;
73940;SDS011;62294;48.554;10.202;2022-08-19T06:17:26;30.98;;;16.65;;
73940;SDS011;62294;48.554;10.202;2022-08-19T06:19:52;26.08;;;15.57;;
73940;SDS011;62294;48.554;10.202;2022-08-19T06:22:19;25.77;;;15.80;;
73940;SDS011;62294;48.554;10.202;2022-08-19T06:24:46;25.27;;;15.48;;
73940;SDS011;62294;48.554;10.202;2022-08-19T06:27:12;24.10;;;15.43;;
73940;SDS011;62294;48.554;10.202;2022-08-19T06:29:39;22.75;;;14.27;;
73940;SDS011;62294;48.554;10.202;2022-08-19T06:32:06;33.03;;;16.70;;
73940;SDS011;62294;48.554;10.202;2022-08-19T06:34:33;30.17;;;16.20;;
73940;SDS011;62294;48.554;10.202;2022-08-19T06:37:01;27.27;;;16.73;;
73940;SDS011;62294;48.554;10.202;2022-08-19T06:39:30;24.92;;;15.27;;
73940;SDS011;62294;48.554;10.202;2022-08-19T06:41:59;28.95;;;16.98;;
73940;SDS011;62294;48.554;10.202;2022-08-19T06:44:30;26.17;;;15.60;;
73940;SDS011;62294;48.554;10.202;2022-08-19T06:47:06;25.45;;;14.25;;
73940;SDS011;62294;48.554;10.202;2022-08-19T06:49:48;21.08;;;14.10;;
73940;SDS011;62294;48.554;10.202;2022-08-19T06:52:14;22.58;;;14.55;;
73940;SDS011;62294;48.554;10.202;2022-08-19T06:54:42;24.88;;;14.68;;
73940;SDS011;62294;48.554;10.202;2022-08-19T06:57:21;25.92;;;15.90;;
73940;SDS011;62294;48.554;10.202;2022-08-19T06:59:48;23.90;;;14.40;;
73940;SDS011;62294;48.554;10.202;2022-08-19T07:02:15;23.15;;;14.73;;
73940;SDS011;62294;48.554;10.202;2022-08-19T07:04:47;21.38;;;13.10;;
73940;SDS011;62294;48.554;10.202;2022-08-19T07:07:18;21.17;;;13.27;;
73940;SDS011;62294;48.554;10.202;2022-08-19T07:09:47;22.55;;;13.75;;
73940;SDS011;62294;48.554;10.202;2022-08-19T07:12:28;18.27;;;11.88;;
73940;SDS011;62294;48.554;10.202;2022-08-19T07:15:00;19.23;;;11.93;;
73940;SDS011;62294;48.554;10.202;2022-08-19T07:17:28;21.27;;;14.35;;
73940;SDS011;62294;48.554;10.202;2022-08-19T07:19:56;20.17;;;12.23;;
73940;SDS011;62294;48.554;10.202;2022-08-19T07:22:30;22.20;;;12.98;;
73940;SDS011;62294;48.554;10.202;2022-08-19T07:24:57;22.75;;;13.88;;
73940;SDS011;62294;48.554;10.202;2022-08-19T07:27:24;22.23;;;14.68;;
73940;SDS011;62294;48.554;10.202;2022-08-19T07:29:53;21.92;;;13.80;;
73940;SDS011;62294;48.554;10.202;2022-08-19T07:32:22;23.33;;;13.50;;
73940;SDS011;62294;48.554;10.202;2022-08-19T07:34:52;20.35;;;13.10;;
73940;SDS011;62294;48.554;10.202;2022-08-19T07:37:19;22.25;;;13.63;;
73940;SDS011;62294;48.554;10.202;2022-08-19T07:39:46;19.88;;;13.48;;
73940;SDS011;62294;48.554;10.202;2022-08-19T07:42:13;21.30;;;13.55;;
73940;SDS011;62294;48.554;10.202;2022-08-19T07:44:41;20.73;;;13.13;;
73940;SDS011;62294;48.554;10.202;2022-08-19T07:47:16;20.88;;;13.25;;
73940;SDS011;62294;48.554;10.202;2022-08-19T07:50:03;22.80;;;14.35;;
73940;SDS011;62294;48.554;10.202;2022-08-19T07:52:33;22.35;;;12.98;;
73940;SDS011;62294;48.554;10.202;2022-08-19T07:55:00;22.67;;;14.73;;
73940;SDS011;62294;48.554;10.202;2022-08-19T07:57:29;25.58;;;14.93;;
73940;SDS011;62294;48.554;10.202;2022-08-19T07:59:56;23.08;;;14.15;;
73940;SDS011;62294;48.554;10.202;2022-08-19T08:02:22;22.67;;;13.80;;
73940;SDS011;62294;48.554;10.202;2022-08-19T08:04:48;22.10;;;14.85;;
73940;SDS011;62294;48.554;10.202;2022-08-19T08:07:34;21.92;;;14.30;;
73940;SDS011;62294;48.554;10.202;2022-08-19T08:10:19;22.13;;;13.73;;
73940;SDS011;62294;48.554;10.202;2022-08-19T08:12:49;20.42;;;13.68;;
73940;SDS011;62294;48.554;10.202;2022-08-19T08:15:35;22.80;;;14.25;;
73940;SDS011;62294;48.554;10.202;2022-08-19T08:18:08;20.75;;;13.48;;
73940;SDS011;62294;48.554;10.202;2022-08-19T08:20:36;20.55;;;12.75;;
73940;SDS011;62294;48.554;10.202;2022-08-19T08:23:02;22.77;;;14.40;;
73940;SDS011;62294;48.554;10.202;2022-08-19T08:25:48;19.88;;;13.07;;
73940;SDS011;62294;48.554;10.202;2022-08-19T08:28:16;23.95;;;15.82;;
73940;SDS011;62294;48.554;10.202;2022-08-19T08:30:44;20.60;;;14.30;;
73940;SDS011;62294;48.554;10.202;2022-08-19T08:33:17;19.25;;;12.95;;
73940;SDS011;62294;48.554;10.202;2022-08-19T08:35:59;21.15;;;13.98;;
73940;SDS011;62294;48.554;10.202;2022-08-19T08:38:29;21.02;;;13.65;;
73940;SDS011;62294;48.554;10.202;2022-08-19T08:41:06;22.98;;;14.88;;
73940;SDS011;62294;48.554;10.202;2022-08-19T08:43:46;22.05;;;14.20;;
73940;SDS011;62294;48.554;10.202;2022-08-19T08:46:19;24.45;;;14.98;;
73940;SDS011;62294;48.554;10.202;2022-08-19T08:51:48;20.63;;;13.20;;
73940;SDS011;62294;48.554;10.202;2022-08-19T08:54:40;22.10;;;13.93;;
73940;SDS011;62294;48.554;10.202;2022-08-19T08:57:27;23.27;;;14.67;;
73940;SDS011;62294;48.554;10.202;2022-08-19T09:00:07;19.83;;;13.48;;
73940;SDS011;62294;48.554;10.202;2022-08-19T09:02:40;20.95;;;14.25;;
73940;SDS011;62294;48.554;10.202;2022-08-19T09:05:09;22.40;;;14.57;;
73940;SDS011;62294;48.554;10.202;2022-08-19T09:13:06;20.60;;;13.77;;
73940;SDS011;62294;48.554;10.202;2022-08-19T09:15:45;20.42;;;13.40;;
73940;SDS011;62294;48.554;10.202;2022-08-19T09:18:15;21.45;;;14.60;;
73940;SDS011;62294;48.554;10.202;2022-08-19T09:20:45;20.27;;;13.98;;
73940;SDS011;62294;48.554;10.202;2022-08-19T09:23:13;21.73;;;14.63;;
73940;SDS011;62294;48.554;10.202;2022-08-19T09:25:40;21.92;;;15.00;;
73940;SDS011;62294;48.554;10.202;2022-08-19T09:28:07;21.08;;;14.57;;
73940;SDS011;62294;48.554;10.202;2022-08-19T09:30:47;20.38;;;13.63;;
73940;SDS011;62294;48.554;10.202;2022-08-19T09:33:14;21.38;;;13.55;;
73940;SDS011;62294;48.554;10.202;2022-08-19T09:35:42;19.00;;;13.38;;
73940;SDS011;62294;48.554;10.202;2022-08-19T09:38:18;22.27;;;14.15;;
73940;SDS011;62294;48.554;10.202;2022-08-19T09:40:46;19.73;;;14.15;;
73940;SDS011;62294;48.554;10.202;2022-08-19T09:43:12;20.02;;;14.00;;
73940;SDS011;62294;48.554;10.202;2022-08-19T09:45:39;18.90;;;13.23;;
73940;SDS011;62294;48.554;10.202;2022-08-19T09:48:06;19.98;;;13.38;;
73940;SDS011;62294;48.554;10.202;2022-08-19T09:50:35;21.08;;;13.55;;
73940;SDS011;62294;48.554;10.202;2022-08-19T09:53:17;21.17;;;14.57;;
73940;SDS011;62294;48.554;10.202;2022-08-19T09:55:44;19.52;;;13.25;;
73940;SDS011;62294;48.554;10.202;2022-08-19T09:58:11;23.13;;;15.15;;
73940;SDS011;62294;48.554;10.202;2022-08-19T10:00:37;20.38;;;13.85;;
73940;SDS011;62294;48.554;10.202;2022-08-19T10:03:04;22.55;;;14.70;;
73940;SDS011;62294;48.554;10.202;2022-08-19T10:05:32;17.88;;;13.30;;
73940;SDS011;62294;48.554;10.202;2022-08-19T10:08:22;20.27;;;13.25;;
73940;SDS011;62294;48.554;10.202;2022-08-19T10:10:52;18.38;;;12.85;;
73940;SDS011;62294;48.554;10.202;2022-08-19T10:13:21;18.13;;;13.27;;
73940;SDS011;62294;48.554;10.202;2022-08-19T10:15:51;20.17;;;14.02;;
73940;SDS011;62294;48.554;10.202;2022-08-19T10:18:21;20.45;;;14.13;;
73940;SDS011;62294;48.554;10.202;2022-08-19T10:20:50;17.60;;;13.48;;
73940;SDS011;62294;48.554;10.202;2022-08-19T10:23:21;19.75;;;13.30;;
73940;SDS011;62294;48.554;10.202;2022-08-19T10:25:48;19.73;;;13.77;;
73940;SDS011;62294;48.554;10.202;2022-08-19T10:28:16;19.50;;;14.45;;
73940;SDS011;62294;48.554;10.202;2022-08-19T10:30:45;19.88;;;13.85;;
73940;SDS011;62294;48.554;10.202;2022-08-19T10:33:11;21.75;;;14.10;;
73940;SDS011;62294;48.554;10.202;2022-08-19T10:35:39;19.83;;;13.95;;
73940;SDS011;62294;48.554;10.202;2022-08-19T10:38:22;18.92;;;13.07;;
73940;SDS011;62294;48.554;10.202;2022-08-19T10:40:58;21.92;;;14.20;;
73940;SDS011;62294;48.554;10.202;2022-08-19T10:43:33;21.10;;;14.63;;
73940;SDS011;62294;48.554;10.202;2022-08-19T10:46:07;20.58;;;14.65;;
73940;SDS011;62294;48.554;10.202;2022-08-19T10:48:41;24.35;;;15.40;;
73940;SDS011;62294;48.554;10.202;2022-08-19T10:51:09;24.92;;;15.32;;
73940;SDS011;62294;48.554;10.202;2022-08-19T10:53:56;19.50;;;13.57;;
73940;SDS011;62294;48.554;10.202;2022-08-19T10:56:22;23.20;;;13.85;;
73940;SDS011;62294;48.554;10.202;2022-08-19T10:59:07;19.70;;;13.77;;
73940;SDS011;62294;48.554;10.202;2022-08-19T11:01:36;18.80;;;13.10;;
73940;SDS011;62294;48.554;10.202;2022-08-19T11:04:03;20.77;;;13.57;;
73940;SDS011;62294;48.554;10.202;2022-08-19T11:06:33;21.65;;;14.00;;
73940;SDS011;62294;48.554;10.202;2022-08-19T11:09:00;19.75;;;13.20;;
73940;SDS011;62294;48.554;10.202;2022-08-19T11:11:26;20.35;;;14.02;;
73940;SDS011;62294;48.554;10.202;2022-08-19T11:13:54;21.50;;;14.20;;
73940;SDS011;62294;48.554;10.202;2022-08-19T11:16:22;21.77;;;15.00;;
73940;SDS011;62294;48.554;10.202;2022-08-19T11:18:51;21.25;;;14.55;;
73940;SDS011;62294;48.554;10.202;2022-08-19T11:23:50;24.40;;;16.08;;
73940;SDS011;62294;48.554;10.202;2022-08-19T11:26:18;23.60;;;16.25;;
73940;SDS011;62294;48.554;10.202;2022-08-19T11:28:46;25.38;;;15.45;;
73940;SDS011;62294;48.554;10.202;2022-08-19T11:31:17;23.20;;;14.82;;
73940;SDS011;62294;48.554;10.202;2022-08-19T11:33:48;24.20;;;15.20;;
73940;SDS011;62294;48.554;10.202;2022-08-19T11:36:21;26.10;;;16.58;;
73940;SDS011;62294;48.554;10.202;2022-08-19T11:38:49;27.55;;;16.90;;
73940;SDS011;62294;48.554;10.202;2022-08-19T11:41:16;24.50;;;16.20;;
73940;SDS011;62294;48.554;10.202;2022-08-19T11:43:45;26.55;;;16.60;;
73940;SDS011;62294;48.554;10.202;2022-08-19T11:46:12;22.27;;;15.43;;
73940;SDS011;62294;48.554;10.202;2022-08-19T11:48:41;25.98;;;16.50;;
73940;SDS011;62294;48.554;10.202;2022-08-19T11:51:09;26.95;;;17.13;;
73940;SDS011;62294;48.554;10.202;2022-08-19T11:53:38;22.50;;;15.18;;
73940;SDS011;62294;48.554;10.202;2022-08-19T11:56:05;24.13;;;15.52;;
73940;SDS011;62294;48.554;10.202;2022-08-19T11:58:33;21.23;;;15.02;;
73940;SDS011;62294;48.554;10.202;2022-08-19T12:01:00;22.83;;;15.45;;
73940;SDS011;62294;48.554;10.202;2022-08-19T12:03:27;24.30;;;16.45;;
73940;SDS011;62294;48.554;10.202;2022-08-19T12:05:54;26.13;;;15.98;;
73940;SDS011;62294;48.554;10.202;2022-08-19T12:08:21;28.85;;;17.83;;
73940;SDS011;62294;48.554;10.202;2022-08-19T12:10:47;28.40;;;17.65;;
73940;SDS011;62294;48.554;10.202;2022-08-19T12:13:14;27.02;;;17.90;;
73940;SDS011;62294;48.554;10.202;2022-08-19T12:15:45;24.20;;;15.52;;
73940;SDS011;62294;48.554;10.202;2022-08-19T12:18:13;24.75;;;16.10;;
73940;SDS011;62294;48.554;10.202;2022-08-19T12:20:41;22.65;;;15.40;;
73940;SDS011;62294;48.554;10.202;2022-08-19T12:23:09;22.08;;;13.93;;
73940;SDS011;62294;48.554;10.202;2022-08-19T12:25:37;19.88;;;13.55;;
73940;SDS011;62294;48.554;10.202;2022-08-19T12:28:09;16.90;;;12.23;;
73940;SDS011;62294;48.554;10.202;2022-08-19T12:30:37;17.35;;;12.93;;
73940;SDS011;62294;48.554;10.202;2022-08-19T12:33:04;17.27;;;12.20;;
73940;SDS011;62294;48.554;10.202;2022-08-19T12:35:31;21.92;;;14.63;;
73940;SDS011;62294;48.554;10.202;2022-08-19T12:37:57;14.52;;;11.15;;
73940;SDS011;62294;48.554;10.202;2022-08-19T12:40:25;18.92;;;12.70;;
73940;SDS011;62294;48.554;10.202;2022-08-19T12:42:52;15.93;;;11.60;;
73940;SDS011;62294;48.554;10.202;2022-08-19T12:45:19;15.98;;;10.80;;
73940;SDS011;62294;48.554;10.202;2022-08-19T12:47:46;15.20;;;11.05;;
73940;SDS011;62294;48.554;10.202;2022-08-19T12:50:14;14.65;;;10.63;;
73940;SDS011;62294;48.554;10.202;2022-08-19T12:52:41;14.43;;;10.70;;
73940;SDS011;62294;48.554;10.202;2022-08-19T12:55:08;16.15;;;10.68;;
73940;SDS011;62294;48.554;10.202;2022-08-19T12:57:37;12.93;;;10.13;;
73940;SDS011;62294;48.554;10.202;2022-08-19T13:00:06;15.68;;;10.02;;
73940;SDS011;62294;48.554;10.202;2022-08-19T13:02:42;14.65;;;11.30;;
73940;SDS011;62294;48.554;10.202;2022-08-19T13:05:15;12.23;;;8.98;;
73940;SDS011;62294;48.554;10.202;2022-08-19T13:07:51;14.88;;;10.10;;
73940;SDS011;62294;48.554;10.202;2022-08-19T13:10:22;12.95;;;9.48;;
73940;SDS011;62294;48.554;10.202;2022-08-19T13:12:51;11.82;;;9.40;;
73940;SDS011;62294;48.554;10.202;2022-08-19T13:15:19;13.40;;;9.95;;
73940;SDS011;62294;48.554;10.202;2022-08-19T13:17:50;11.90;;;9.05;;
73940;SDS011;62294;48.554;10.202;2022-08-19T13:20:18;13.52;;;9.00;;
73940;SDS011;62294;48.554;10.202;2022-08-19T13:22:47;12.95;;;8.73;;
73940;SDS011;62294;48.554;10.202;2022-08-19T13:25:14;11.07;;;8.18;;
73940;SDS011;62294;48.554;10.202;2022-08-19T13:27:44;10.13;;;7.95;;
73940;SDS011;62294;48.554;10.202;2022-08-19T13:30:11;12.40;;;8.13;;
73940;SDS011;62294;48.554;10.202;2022-08-19T13:32:58;9.63;;;6.85;;
73940;SDS011;62294;48.554;10.202;2022-08-19T13:35:47;11.23;;;7.43;;
73940;SDS011;62294;48.554;10.202;2022-08-19T13:38:17;10.20;;;7.35;;
73940;SDS011;62294;48.554;10.202;2022-08-19T13:40:47;9.18;;;6.50;;
73940;SDS011;62294;48.554;10.202;2022-08-19T13:43:16;8.20;;;6.32;;
73940;SDS011;62294;48.554;10.202;2022-08-19T13:45:49;9.43;;;6.70;;
73940;SDS011;62294;48.554;10.202;2022-08-19T13:48:20;8.10;;;6.03;;
73940;SDS011;62294;48.554;10.202;2022-08-19T13:50:47;7.80;;;5.95;;
73940;SDS011;62294;48.554;10.202;2022-08-19T13:53:16;8.45;;;5.85;;
73940;SDS011;62294;48.554;10.202;2022-08-19T13:55:43;8.18;;;5.50;;
73940;SDS011;62294;48.554;10.202;2022-08-19T13:58:10;6.82;;;4.82;;
73940;SDS011;62294;48.554;10.202;2022-08-19T14:00:39;7.20;;;5.15;;
73940;SDS011;62294;48.554;10.202;2022-08-19T14:03:08;6.00;;;4.70;;
73940;SDS011;62294;48.554;10.202;2022-08-19T14:05:35;6.90;;;4.43;;
73940;SDS011;62294;48.554;10.202;2022-08-19T14:08:03;6.57;;;4.85;;
73940;SDS011;62294;48.554;10.202;2022-08-19T14:10:29;6.00;;;4.47;;
73940;SDS011;62294;48.554;10.202;2022-08-19T14:12:58;4.55;;;3.80;;
73940;SDS011;62294;48.554;10.202;2022-08-19T14:15:27;4.38;;;3.35;;
73940;SDS011;62294;48.554;10.202;2022-08-19T14:17:54;5.05;;;3.72;;
73940;SDS011;62294;48.554;10.202;2022-08-19T14:20:22;4.97;;;3.60;;
73940;SDS011;62294;48.554;10.202;2022-08-19T14:22:51;4.65;;;3.55;;
73940;SDS011;62294;48.554;10.202;2022-08-19T14:25:19;4.68;;;3.90;;
73940;SDS011;62294;48.554;10.202;2022-08-19T14:27:48;5.88;;;4.25;;
73940;SDS011;62294;48.554;10.202;2022-08-19T14:30:16;5.57;;;4.25;;
73940;SDS011;62294;48.554;10.202;2022-08-19T14:32:45;6.60;;;5.30;;
73940;SDS011;62294;48.554;10.202;2022-08-19T14:35:13;7.47;;;4.88;;
73940;SDS011;62294;48.554;10.202;2022-08-19T14:37:42;5.97;;;4.30;;
73940;SDS011;62294;48.554;10.202;2022-08-19T14:40:23;7.22;;;4.50;;
73940;SDS011;62294;48.554;10.202;2022-08-19T14:42:54;6.00;;;4.82;;
73940;SDS011;62294;48.554;10.202;2022-08-19T14:45:35;6.85;;;5.30;;